Stena Conquest — IBGM — position and weather

sailwx.info

Track history (hours):
 
Tides and Currents Weather Stations Pressure Air Temp Water Temp Dewpoint Dewpoint Depression Visibility Wind Speed Wind Dir Waves Ship Positions

Stena Conquest

Last reported at 2018-Jan-18 01:24 UTC. Time now 2018-Jan-19 03:54 UTC.
Position N 37°30' E 015°42'.

Length 182 m; draft 0.85 m.

Type: Ship (hazmat cat A). MMSI: 247091300.

Date/timePositionNaut miles runAvg speedWind from/ knotsBaromVisibWave heightAir tempDewpointWater temp
2018-Jan-18 01:24N 37°30' E 015°42'511.5
2018-Jan-18 01:00N 37°26' E 015°38'  
2018-Jan-11 10:53N 37°12' E 015°29'511.6
2018-Jan-11 10:26N 37°12' E 015°35'810.6
2018-Jan-11 09:44N 37°13' E 015°44'2 6.6
2018-Jan-11 09:27N 37°15' E 015°45'1211.5
2018-Jan-11 08:24N 37°23' E 015°56'8 0.8
2018-Jan-10 21:53N 37°21' E 015°46'511.9
2018-Jan-10 21:29N 37°26' E 015°45'612.5
2018-Jan-10 20:59N 37°32' E 015°45'1013.1
2018-Jan-10 20:15N 37°42' E 015°45'310.6
2018-Jan-10 19:55N 37°41' E 015°40'511.9
2018-Jan-10 19:28N 37°36' E 015°37'1111.6
2018-Jan-10 18:28N 37°25' E 015°33'67 9.3
2018-Jan-10 11:16N 36°39' E 014°34'312.8
2018-Jan-10 11:00N 36°39' E 014°29'713.1
2018-Jan-10 10:30N 36°43' E 014°23'612.9
2018-Jan-10 10:00N 36°46' E 014°15'612.7
2018-Jan-10 09:30N 36°48' E 014°08'612.5
2018-Jan-10 09:00N 36°51' E 014°01'612.4
2018-Jan-10 08:31N 36°54' E 013°54'612.1
2018-Jan-10 08:00N 36°56' E 013°47'267 9.5
2018-Jan-09 04:00N 38°31' E 008°32'611.6
2018-Jan-09 03:30N 38°34' E 008°39'611.9
2018-Jan-09 02:58N 38°37' E 008°46'612.0
2018-Jan-09 02:28N 38°41' E 008°52'912.1
2018-Jan-09 01:44N 38°45' E 009°02'312.4
2018-Jan-09 01:30N 38°46' E 009°06'612.4
2018-Jan-09 01:00N 38°49' E 009°12'612.3
2018-Jan-09 00:30N 38°52' E 009°19'612.4
2018-Jan-09 00:00N 38°55' E 009°27'  
Track history (hours):
 
Tides and Currents Weather Stations Pressure Air Temp Water Temp Dewpoint Dewpoint Depression Visibility Wind Speed Wind Dir Waves Ship Positions

Stena Conquest

Last reported at 2018-Jan-18 01:24 UTC. Time now 2018-Jan-19 03:54 UTC.
Position N 37°30' E 015°42'.

Length 182 m; draft 0.85 m.

Type: Ship (hazmat cat A). MMSI: 247091300.

Date/timePositionNaut miles runAvg speedWind from/ knotsBaromVisibWave heightAir tempDewpointWater temp
2018-Jan-18 01:24N 37°30' E 015°42'511.5
2018-Jan-18 01:00N 37°26' E 015°38'  
2018-Jan-11 10:53N 37°12' E 015°29'511.6
2018-Jan-11 10:26N 37°12' E 015°35'810.6
2018-Jan-11 09:44N 37°13' E 015°44'2 6.6
2018-Jan-11 09:27N 37°15' E 015°45'1211.5
2018-Jan-11 08:24N 37°23' E 015°56'8 0.8
2018-Jan-10 21:53N 37°21' E 015°46'511.9
2018-Jan-10 21:29N 37°26' E 015°45'612.5
2018-Jan-10 20:59N 37°32' E 015°45'1013.1
2018-Jan-10 20:15N 37°42' E 015°45'310.6
2018-Jan-10 19:55N 37°41' E 015°40'511.9
2018-Jan-10 19:28N 37°36' E 015°37'1111.6
2018-Jan-10 18:28N 37°25' E 015°33'67 9.3
2018-Jan-10 11:16N 36°39' E 014°34'312.8
2018-Jan-10 11:00N 36°39' E 014°29'713.1
2018-Jan-10 10:30N 36°43' E 014°23'612.9
2018-Jan-10 10:00N 36°46' E 014°15'612.7
2018-Jan-10 09:30N 36°48' E 014°08'612.5
2018-Jan-10 09:00N 36°51' E 014°01'612.4
2018-Jan-10 08:31N 36°54' E 013°54'612.1
2018-Jan-10 08:00N 36°56' E 013°47'267 9.5
2018-Jan-09 04:00N 38°31' E 008°32'611.6
2018-Jan-09 03:30N 38°34' E 008°39'611.9
2018-Jan-09 02:58N 38°37' E 008°46'612.0
2018-Jan-09 02:28N 38°41' E 008°52'912.1
2018-Jan-09 01:44N 38°45' E 009°02'312.4
2018-Jan-09 01:30N 38°46' E 009°06'612.4
2018-Jan-09 01:00N 38°49' E 009°12'612.3
2018-Jan-09 00:30N 38°52' E 009°19'612.4
2018-Jan-09 00:00N 38°55' E 009°27'  

Dump ship's entire track history